sensor_id;sensor_type;location;lat;lon;timestamp;pressure;altitude;pressure_sealevel;temperature;humidity
21504;BME280;10913;51.992;9.228;2024-01-16T00:01:37;99176.16;;;1.73;100.00
21504;BME280;10913;51.992;9.228;2024-01-16T00:04:20;99176.16;;;1.72;100.00
21504;BME280;10913;51.992;9.228;2024-01-16T00:06:53;99182.25;;;1.76;100.00
21504;BME280;10913;51.992;9.228;2024-01-16T00:09:28;99189.22;;;1.77;100.00
21504;BME280;10913;51.992;9.228;2024-01-16T00:12:02;99195.25;;;1.74;100.00
21504;BME280;10913;51.992;9.228;2024-01-16T00:14:29;99189.16;;;1.70;100.00
21504;BME280;10913;51.992;9.228;2024-01-16T00:17:31;99198.69;;;1.70;100.00
21504;BME280;10913;51.992;9.228;2024-01-16T00:19:59;99198.63;;;1.65;100.00
21504;BME280;10913;51.992;9.228;2024-01-16T00:22:33;99197.72;;;1.63;100.00
21504;BME280;10913;51.992;9.228;2024-01-16T00:25:11;99202.94;;;1.63;100.00
21504;BME280;10913;51.992;9.228;2024-01-16T00:27:37;99210.75;;;1.63;100.00
21504;BME280;10913;51.992;9.228;2024-01-16T00:30:05;99214.22;;;1.64;100.00
21504;BME280;10913;51.992;9.228;2024-01-16T00:32:32;99212.44;;;1.57;100.00
21504;BME280;10913;51.992;9.228;2024-01-16T00:35:17;99223.72;;;1.57;100.00
21504;BME280;10913;51.992;9.228;2024-01-16T00:37:45;99220.22;;;1.55;100.00
21504;BME280;10913;51.992;9.228;2024-01-16T00:40:16;99224.53;;;1.55;100.00
21504;BME280;10913;51.992;9.228;2024-01-16T00:42:49;99215.06;;;1.58;100.00
21504;BME280;10913;51.992;9.228;2024-01-16T00:45:35;99224.59;;;1.59;100.00
21504;BME280;10913;51.992;9.228;2024-01-16T00:48:32;99216.75;;;1.56;100.00
21504;BME280;10913;51.992;9.228;2024-01-16T00:51:17;99228.03;;;1.55;100.00
21504;BME280;10913;51.992;9.228;2024-01-16T00:53:44;99228.84;;;1.51;100.00
21504;BME280;10913;51.992;9.228;2024-01-16T00:56:12;99236.56;;;1.45;100.00
21504;BME280;10913;51.992;9.228;2024-01-16T00:58:58;99239.19;;;1.48;100.00
21504;BME280;10913;51.992;9.228;2024-01-16T01:01:23;99246.09;;;1.46;100.00
21504;BME280;10913;51.992;9.228;2024-01-16T01:03:58;99241.75;;;1.45;100.00
21504;BME280;10913;51.992;9.228;2024-01-16T01:06:23;99235.69;;;1.46;100.00
21504;BME280;10913;51.992;9.228;2024-01-16T01:09:39;99242.59;;;1.44;100.00
21504;BME280;10913;51.992;9.228;2024-01-16T01:12:13;99259.13;;;1.46;100.00
21504;BME280;10913;51.992;9.228;2024-01-16T01:18:21;99253.16;;;1.53;100.00
21504;BME280;10913;51.992;9.228;2024-01-16T01:21:29;99266.13;;;1.52;100.00
21504;BME280;10913;51.992;9.228;2024-01-16T01:30:50;99268.81;;;1.56;100.00
21504;BME280;10913;51.992;9.228;2024-01-16T01:33:26;99276.63;;;1.56;100.00
21504;BME280;10913;51.992;9.228;2024-01-16T01:36:08;99280.03;;;1.54;100.00
21504;BME280;10913;51.992;9.228;2024-01-16T01:39:19;99278.22;;;1.48;100.00
21504;BME280;10913;51.992;9.228;2024-01-16T01:42:11;99285.22;;;1.51;100.00
21504;BME280;10913;51.992;9.228;2024-01-16T01:55:29;99295.63;;;1.51;100.00
21504;BME280;10913;51.992;9.228;2024-01-16T01:58:49;99303.44;;;1.51;100.00
21504;BME280;10913;51.992;9.228;2024-01-16T08:39:38;99472.41;;;1.42;100.00
21504;BME280;10913;51.992;9.228;2024-01-16T08:42:04;99465.53;;;1.45;100.00
21504;BME280;10913;51.992;9.228;2024-01-16T08:44:54;99470.78;;;1.48;100.00
21504;BME280;10913;51.992;9.228;2024-01-16T08:47:46;99461.31;;;1.52;100.00
21504;BME280;10913;51.992;9.228;2024-01-16T08:50:20;99475.28;;;1.57;100.00
21504;BME280;10913;51.992;9.228;2024-01-16T08:52:58;99464.97;;;1.64;100.00
21504;BME280;10913;51.992;9.228;2024-01-16T08:55:23;99480.53;;;1.60;99.99
21504;BME280;10913;51.992;9.228;2024-01-16T08:58:10;99476.22;;;1.62;100.00
21504;BME280;10913;51.992;9.228;2024-01-16T09:00:38;99473.63;;;1.63;100.00
21504;BME280;10913;51.992;9.228;2024-01-16T09:03:21;99466.69;;;1.62;100.00
21504;BME280;10913;51.992;9.228;2024-01-16T09:06:03;99471.97;;;1.68;100.00
21504;BME280;10913;51.992;9.228;2024-01-16T09:09:13;99468.63;;;1.76;100.00
21504;BME280;10913;51.992;9.228;2024-01-16T09:11:50;99468.72;;;1.83;100.00
21504;BME280;10913;51.992;9.228;2024-01-16T09:14:41;99468.03;;;1.95;100.00
21504;BME280;10913;51.992;9.228;2024-01-16T09:17:31;99477.69;;;2.02;99.41
21504;BME280;10913;51.992;9.228;2024-01-16T09:20:18;99466.44;;;2.04;99.00
21504;BME280;10913;51.992;9.228;2024-01-16T09:22:44;99474.41;;;2.15;98.89
21504;BME280;10913;51.992;9.228;2024-01-16T09:25:35;99476.06;;;2.10;98.13
21504;BME280;10913;51.992;9.228;2024-01-16T09:28:01;99477.84;;;2.13;98.08
21504;BME280;10913;51.992;9.228;2024-01-16T09:30:26;99477.91;;;2.17;98.33
21504;BME280;10913;51.992;9.228;2024-01-16T09:32:52;99475.34;;;2.19;98.31
21504;BME280;10913;51.992;9.228;2024-01-16T09:35:21;99479.78;;;2.27;98.34
21504;BME280;10913;51.992;9.228;2024-01-16T09:37:47;99473.84;;;2.39;97.26
21504;BME280;10913;51.992;9.228;2024-01-16T09:40:13;99475.56;;;2.40;96.53
21504;BME280;10913;51.992;9.228;2024-01-16T09:42:38;99473.03;;;2.45;96.17
21504;BME280;10913;51.992;9.228;2024-01-16T09:45:08;99474.16;;;2.65;95.86
21504;BME280;10913;51.992;9.228;2024-01-16T09:47:34;99476.78;;;2.68;94.53
21504;BME280;10913;51.992;9.228;2024-01-16T09:50:05;99479.31;;;2.62;93.38
21504;BME280;10913;51.992;9.228;2024-01-16T09:52:34;99487.88;;;2.50;93.71
21504;BME280;10913;51.992;9.228;2024-01-16T09:54:59;99489.53;;;2.43;94.20
21504;BME280;10913;51.992;9.228;2024-01-16T09:57:25;99486.00;;;2.38;94.68
21504;BME280;10913;51.992;9.228;2024-01-16T09:59:58;99481.63;;;2.36;95.40
21504;BME280;10913;51.992;9.228;2024-01-16T10:02:26;99470.34;;;2.37;94.88
21504;BME280;10913;51.992;9.228;2024-01-16T10:04:52;99473.88;;;2.43;94.49
21504;BME280;10913;51.992;9.228;2024-01-16T10:07:30;99468.66;;;2.42;94.49
21504;BME280;10913;51.992;9.228;2024-01-16T10:09:59;99475.59;;;2.41;94.58
21504;BME280;10913;51.992;9.228;2024-01-16T10:12:24;99480.66;;;2.28;94.60
21504;BME280;10913;51.992;9.228;2024-01-16T10:14:50;99482.28;;;2.18;94.51
21504;BME280;10913;51.992;9.228;2024-01-16T10:17:19;99481.41;;;2.19;95.32
21504;BME280;10913;51.992;9.228;2024-01-16T10:19:52;99483.16;;;2.19;95.94
21504;BME280;10913;51.992;9.228;2024-01-16T10:22:22;99482.28;;;2.21;96.22
21504;BME280;10913;51.992;9.228;2024-01-16T10:25:09;99488.34;;;2.20;96.10
21504;BME280;10913;51.992;9.228;2024-01-16T10:27:35;99479.66;;;2.18;96.30
21504;BME280;10913;51.992;9.228;2024-01-16T10:30:03;99482.28;;;2.18;96.26
21504;BME280;10913;51.992;9.228;2024-01-16T10:32:40;99486.69;;;2.25;96.11
21504;BME280;10913;51.992;9.228;2024-01-16T10:35:12;99491.84;;;2.22;95.70
21504;BME280;10913;51.992;9.228;2024-01-16T10:37:50;99488.44;;;2.26;96.10
21504;BME280;10913;51.992;9.228;2024-01-16T10:40:24;99487.69;;;2.33;95.75
21504;BME280;10913;51.992;9.228;2024-01-16T10:43:08;99490.38;;;2.39;95.40
21504;BME280;10913;51.992;9.228;2024-01-16T10:45:40;99493.00;;;2.42;95.50
21504;BME280;10913;51.992;9.228;2024-01-16T10:48:07;99479.91;;;2.38;94.18
21504;BME280;10913;51.992;9.228;2024-01-16T10:50:37;99492.09;;;2.39;94.84
21504;BME280;10913;51.992;9.228;2024-01-16T10:53:04;99483.41;;;2.41;95.14
21504;BME280;10913;51.992;9.228;2024-01-16T10:55:31;99488.66;;;2.43;94.96
21504;BME280;10913;51.992;9.228;2024-01-16T10:58:02;99482.53;;;2.41;95.53
21504;BME280;10913;51.992;9.228;2024-01-16T11:00:28;99483.41;;;2.38;94.63
21504;BME280;10913;51.992;9.228;2024-01-16T11:03:12;99480.78;;;2.37;95.24
21504;BME280;10913;51.992;9.228;2024-01-16T11:05:51;99486.78;;;2.31;95.38
21504;BME280;10913;51.992;9.228;2024-01-16T11:08:20;99477.13;;;2.24;95.48
21504;BME280;10913;51.992;9.228;2024-01-16T11:10:54;99479.72;;;2.24;95.31
21504;BME280;10913;51.992;9.228;2024-01-16T11:13:20;99480.56;;;2.22;96.28
21504;BME280;10913;51.992;9.228;2024-01-16T11:15:50;99483.16;;;2.19;96.69
21504;BME280;10913;51.992;9.228;2024-01-16T11:18:16;99484.81;;;2.15;97.10
21504;BME280;10913;51.992;9.228;2024-01-16T11:20:43;99474.41;;;2.15;97.32
21504;BME280;10913;51.992;9.228;2024-01-16T11:23:11;99484.81;;;2.15;97.19
21504;BME280;10913;51.992;9.228;2024-01-16T11:25:36;99476.97;;;2.12;97.52
21504;BME280;10913;51.992;9.228;2024-01-16T11:28:14;99476.94;;;2.11;98.14
21504;BME280;10913;51.992;9.228;2024-01-16T11:30:42;99479.56;;;2.12;98.29
21504;BME280;10913;51.992;9.228;2024-01-16T11:33:45;99474.31;;;2.09;98.88
21504;BME280;10913;51.992;9.228;2024-01-16T11:36:42;99476.91;;;2.09;99.04
21504;BME280;10913;51.992;9.228;2024-01-16T11:39:20;99469.91;;;2.05;99.70
21504;BME280;10913;51.992;9.228;2024-01-16T11:42:01;99469.84;;;1.99;99.82
21504;BME280;10913;51.992;9.228;2024-01-16T11:44:47;99474.16;;;2.00;99.59
21504;BME280;10913;51.992;9.228;2024-01-16T11:47:20;99475.06;;;2.00;99.65
21504;BME280;10913;51.992;9.228;2024-01-16T11:50:08;99489.78;;;2.00;99.16
21504;BME280;10913;51.992;9.228;2024-01-16T11:52:46;99480.25;;;1.97;98.95
21504;BME280;10913;51.992;9.228;2024-01-16T11:55:32;99481.97;;;1.97;98.73
21504;BME280;10913;51.992;9.228;2024-01-16T12:00:54;99484.47;;;1.91;97.80
21504;BME280;10913;51.992;9.228;2024-01-16T12:03:34;99480.19;;;1.94;98.00
21504;BME280;10913;51.992;9.228;2024-01-16T12:06:00;99477.59;;;1.94;97.26
21504;BME280;10913;51.992;9.228;2024-01-16T12:08:27;99492.41;;;1.98;97.30
21504;BME280;10913;51.992;9.228;2024-01-16T12:10:53;99484.59;;;2.00;96.23
21504;BME280;10913;51.992;9.228;2024-01-16T12:13:28;99479.44;;;2.04;96.62
21504;BME280;10913;51.992;9.228;2024-01-16T12:16:02;99483.81;;;2.05;96.61
21504;BME280;10913;51.992;9.228;2024-01-16T12:18:31;99483.78;;;2.04;95.97
21504;BME280;10913;51.992;9.228;2024-01-16T12:20:57;99482.88;;;2.02;96.24
21504;BME280;10913;51.992;9.228;2024-01-16T12:23:32;99481.13;;;2.01;96.05
21504;BME280;10913;51.992;9.228;2024-01-16T12:26:08;99479.31;;;1.94;96.27
21504;BME280;10913;51.992;9.228;2024-01-16T12:28:41;99477.63;;;1.96;96.38
21504;BME280;10913;51.992;9.228;2024-01-16T12:31:09;99481.97;;;1.97;96.09
21504;BME280;10913;51.992;9.228;2024-01-16T12:34:04;99480.19;;;1.94;95.58
21504;BME280;10913;51.992;9.228;2024-01-16T12:36:40;99474.91;;;1.90;95.34
21504;BME280;10913;51.992;9.228;2024-01-16T12:39:24;99472.41;;;1.96;95.92
21504;BME280;10913;51.992;9.228;2024-01-16T12:42:03;99467.09;;;1.90;95.38
21504;BME280;10913;51.992;9.228;2024-01-16T12:44:39;99463.59;;;1.88;95.67
21504;BME280;10913;51.992;9.228;2024-01-16T12:50:18;99460.13;;;1.89;96.28
21504;BME280;10913;51.992;9.228;2024-01-16T12:52:47;99458.44;;;1.91;96.08
21504;BME280;10913;51.992;9.228;2024-01-16T12:55:25;99449.66;;;1.86;95.51
21504;BME280;10913;51.992;9.228;2024-01-16T12:58:22;99435.72;;;1.81;95.65
21504;BME280;10913;51.992;9.228;2024-01-16T13:03:50;99428.78;;;1.83;95.66
21504;BME280;10913;51.992;9.228;2024-01-16T13:06:20;99420.09;;;1.82;95.49
21504;BME280;10913;51.992;9.228;2024-01-16T13:09:08;99427.94;;;1.84;95.34
21504;BME280;10913;51.992;9.228;2024-01-16T13:12:19;99423.59;;;1.84;95.74
21504;BME280;10913;51.992;9.228;2024-01-16T13:14:45;99426.22;;;1.84;95.10
21504;BME280;10913;51.992;9.228;2024-01-16T13:17:39;99420.06;;;1.78;94.49
21504;BME280;10913;51.992;9.228;2024-01-16T13:20:21;99415.75;;;1.78;94.67
21504;BME280;10913;51.992;9.228;2024-01-16T13:22:48;99413.16;;;1.80;95.02
21504;BME280;10913;51.992;9.228;2024-01-16T13:25:14;99416.63;;;1.82;95.13
21504;BME280;10913;51.992;9.228;2024-01-16T13:27:43;99421.88;;;1.85;95.52
21504;BME280;10913;51.992;9.228;2024-01-16T13:30:19;99431.41;;;1.83;95.71
21504;BME280;10913;51.992;9.228;2024-01-16T13:32:44;99420.16;;;1.85;95.63
21504;BME280;10913;51.992;9.228;2024-01-16T13:35:29;99411.47;;;1.85;95.67
21504;BME280;10913;51.992;9.228;2024-01-16T13:37:55;99415.78;;;1.83;95.49
21504;BME280;10913;51.992;9.228;2024-01-16T13:40:36;99402.75;;;1.83;95.46
21504;BME280;10913;51.992;9.228;2024-01-16T13:43:11;99407.97;;;1.84;95.59
21504;BME280;10913;51.992;9.228;2024-01-16T13:45:51;99402.75;;;1.83;95.42
21504;BME280;10913;51.992;9.228;2024-01-16T13:48:19;99404.47;;;1.82;94.98
21504;BME280;10913;51.992;9.228;2024-01-16T13:50:45;99410.53;;;1.78;94.96
21504;BME280;10913;51.992;9.228;2024-01-16T13:53:16;99400.91;;;1.72;93.72
21504;BME280;10913;51.992;9.228;2024-01-16T13:55:42;99397.41;;;1.70;93.81
21504;BME280;10913;51.992;9.228;2024-01-16T13:58:08;99397.41;;;1.70;94.25
21504;BME280;10913;51.992;9.228;2024-01-16T14:00:33;99404.41;;;1.75;94.93
21504;BME280;10913;51.992;9.228;2024-01-16T14:02:59;99401.78;;;1.75;95.24
21504;BME280;10913;51.992;9.228;2024-01-16T14:05:24;99405.28;;;1.75;95.10
21504;BME280;10913;51.992;9.228;2024-01-16T14:07:59;99401.78;;;1.75;94.66
21504;BME280;10913;51.992;9.228;2024-01-16T14:10:34;99407.91;;;1.77;94.89
21504;BME280;10913;51.992;9.228;2024-01-16T14:13:02;99400.03;;;1.72;93.76
21504;BME280;10913;51.992;9.228;2024-01-16T14:15:41;99399.19;;;1.75;94.45
21504;BME280;10913;51.992;9.228;2024-01-16T14:20:58;99387.72;;;1.63;93.86
21504;BME280;10913;51.992;9.228;2024-01-16T14:23:26;99389.44;;;1.61;94.17
21504;BME280;10913;51.992;9.228;2024-01-16T14:25:57;99386.84;;;1.61;94.75
21504;BME280;10913;51.992;9.228;2024-01-16T14:28:25;99385.09;;;1.60;95.43
21504;BME280;10913;51.992;9.228;2024-01-16T14:30:52;99383.34;;;1.61;95.80
21504;BME280;10913;51.992;9.228;2024-01-16T14:36:04;99395.50;;;1.60;97.31
21504;BME280;10913;51.992;9.228;2024-01-16T14:39:00;99395.50;;;1.60;97.15
21504;BME280;10913;51.992;9.228;2024-01-16T14:44:51;99394.69;;;1.64;97.91
21504;BME280;10913;51.992;9.228;2024-01-16T14:47:17;99399.84;;;1.61;98.02
21504;BME280;10913;51.992;9.228;2024-01-16T14:49:49;99397.28;;;1.63;98.24
21504;BME280;10913;51.992;9.228;2024-01-16T14:52:14;99392.03;;;1.61;98.52
21504;BME280;10913;51.992;9.228;2024-01-16T14:54:42;99401.56;;;1.61;98.52
21504;BME280;10913;51.992;9.228;2024-01-16T14:57:07;99395.44;;;1.54;98.43
21504;BME280;10913;51.992;9.228;2024-01-16T14:59:36;99397.19;;;1.55;98.86
21504;BME280;10913;51.992;9.228;2024-01-16T15:02:13;99399.75;;;1.54;98.75
21504;BME280;10913;51.992;9.228;2024-01-16T15:04:56;99404.97;;;1.54;98.98
21504;BME280;10913;51.992;9.228;2024-01-16T15:07:21;99411.00;;;1.51;99.06
21504;BME280;10913;51.992;9.228;2024-01-16T15:09:53;99404.94;;;1.52;99.20
21504;BME280;10913;51.992;9.228;2024-01-16T15:12:18;99400.59;;;1.51;99.55
21504;BME280;10913;51.992;9.228;2024-01-16T15:14:46;99402.34;;;1.52;99.42
21504;BME280;10913;51.992;9.228;2024-01-16T15:17:22;99402.34;;;1.52;99.40
21504;BME280;10913;51.992;9.228;2024-01-16T15:19:54;99408.31;;;1.47;98.76
21504;BME280;10913;51.992;9.228;2024-01-16T15:22:20;99410.06;;;1.48;98.87
21504;BME280;10913;51.992;9.228;2024-01-16T15:24:49;99411.81;;;1.49;99.14
21504;BME280;10913;51.992;9.228;2024-01-16T15:27:27;99407.41;;;1.45;98.98
21504;BME280;10913;51.992;9.228;2024-01-16T15:29:55;99403.88;;;1.38;98.09
21504;BME280;10913;51.992;9.228;2024-01-16T15:32:23;99409.09;;;1.41;98.51
21504;BME280;10913;51.992;9.228;2024-01-16T15:34:52;99413.47;;;1.44;98.65
21504;BME280;10913;51.992;9.228;2024-01-16T15:37:17;99416.06;;;1.44;97.45
21504;BME280;10913;51.992;9.228;2024-01-16T15:39:58;99414.34;;;1.44;97.58
21504;BME280;10913;51.992;9.228;2024-01-16T15:42:25;99408.25;;;1.42;97.79
21504;BME280;10913;51.992;9.228;2024-01-16T15:45:19;99408.19;;;1.37;97.15
21504;BME280;10913;51.992;9.228;2024-01-16T15:51:10;99405.47;;;1.30;97.00
21504;BME280;10913;51.992;9.228;2024-01-16T15:53:36;99399.41;;;1.31;96.51
21504;BME280;10913;51.992;9.228;2024-01-16T15:56:04;99393.31;;;1.29;96.57
21504;BME280;10913;51.992;9.228;2024-01-16T15:58:33;99397.69;;;1.31;97.02
21504;BME280;10913;51.992;9.228;2024-01-16T16:01:14;99395.06;;;1.30;96.48
21504;BME280;10913;51.992;9.228;2024-01-16T16:03:42;99394.09;;;1.25;96.16
21504;BME280;10913;51.992;9.228;2024-01-16T16:06:20;99389.81;;;1.27;96.31
21504;BME280;10913;51.992;9.228;2024-01-16T16:08:52;99394.97;;;1.25;96.25
21504;BME280;10913;51.992;9.228;2024-01-16T16:11:25;99389.75;;;1.24;96.49
21504;BME280;10913;51.992;9.228;2024-01-16T16:13:53;99386.25;;;1.22;96.88
21504;BME280;10913;51.992;9.228;2024-01-16T16:16:50;99383.56;;;1.16;96.02
21504;BME280;10913;51.992;9.228;2024-01-16T16:19:26;99386.13;;;1.13;95.70
21504;BME280;10913;51.992;9.228;2024-01-16T16:21:58;99376.59;;;1.13;95.61
21504;BME280;10913;51.992;9.228;2024-01-16T16:24:28;99384.31;;;1.09;94.83
21504;BME280;10913;51.992;9.228;2024-01-16T16:27:25;99389.50;;;1.09;94.99
21504;BME280;10913;51.992;9.228;2024-01-16T16:30:02;99379.84;;;1.01;94.39
21504;BME280;10913;51.992;9.228;2024-01-16T16:32:42;99392.84;;;1.01;94.54
21504;BME280;10913;51.992;9.228;2024-01-16T16:38:44;99390.22;;;1.00;93.14
21504;BME280;10913;51.992;9.228;2024-01-16T16:41:14;99388.47;;;0.97;92.90
21504;BME280;10913;51.992;9.228;2024-01-16T16:43:49;99389.25;;;0.93;91.32
21504;BME280;10913;51.992;9.228;2024-01-16T16:46:18;99391.00;;;0.94;92.15
21504;BME280;10913;51.992;9.228;2024-01-16T16:48:52;99398.84;;;0.96;92.84
21504;BME280;10913;51.992;9.228;2024-01-16T16:51:21;99393.66;;;0.97;92.50
21504;BME280;10913;51.992;9.228;2024-01-16T16:53:47;99395.41;;;0.97;91.76
21504;BME280;10913;51.992;9.228;2024-01-16T16:56:55;99396.22;;;0.94;92.05
21504;BME280;10913;51.992;9.228;2024-01-16T17:13:11;99384.44;;;0.66;91.18
21504;BME280;10913;51.992;9.228;2024-01-16T17:15:38;99379.13;;;0.60;90.52
21504;BME280;10913;51.992;9.228;2024-01-16T17:21:07;99390.25;;;0.52;90.65
21504;BME280;10913;51.992;9.228;2024-01-16T17:23:37;99399.78;;;0.53;90.68
21504;BME280;10913;51.992;9.228;2024-01-16T17:26:05;99407.53;;;0.50;90.42
21504;BME280;10913;51.992;9.228;2024-01-16T17:28:45;99421.44;;;0.52;90.15
21504;BME280;10913;51.992;9.228;2024-01-16T17:31:14;99410.16;;;0.51;89.89
21504;BME280;10913;51.992;9.228;2024-01-16T21:48:12;99247.72;;;-1.45;94.68
21504;BME280;10913;51.992;9.228;2024-01-16T21:50:39;99241.63;;;-1.47;94.65
21504;BME280;10913;51.992;9.228;2024-01-16T21:53:05;99245.09;;;-1.47;94.59
21504;BME280;10913;51.992;9.228;2024-01-16T22:02:24;99237.91;;;-1.57;94.87
21504;BME280;10913;51.992;9.228;2024-01-16T22:04:49;99235.25;;;-1.60;94.98
21504;BME280;10913;51.992;9.228;2024-01-16T22:07:15;99243.84;;;-1.62;95.00
21504;BME280;10913;51.992;9.228;2024-01-16T22:09:41;99242.09;;;-1.63;95.27
21504;BME280;10913;51.992;9.228;2024-01-16T22:12:10;99238.63;;;-1.64;95.92
21504;BME280;10913;51.992;9.228;2024-01-16T22:14:35;99242.94;;;-1.64;96.86
21504;BME280;10913;51.992;9.228;2024-01-16T22:17:03;99236.78;;;-1.68;96.14
21504;BME280;10913;51.992;9.228;2024-01-16T22:19:28;99235.97;;;-1.67;96.06
21504;BME280;10913;51.992;9.228;2024-01-16T22:22:03;99229.88;;;-1.69;95.95
21504;BME280;10913;51.992;9.228;2024-01-16T22:28:27;99234.03;;;-1.74;95.79
21504;BME280;10913;51.992;9.228;2024-01-16T22:31:27;99236.69;;;-1.73;94.86
21504;BME280;10913;51.992;9.228;2024-01-16T22:47:50;99190.69;;;-1.84;95.77
21504;BME280;10913;51.992;9.228;2024-01-16T22:53:52;99182.13;;;-1.82;95.80
21504;BME280;10913;51.992;9.228;2024-01-16T23:03:59;99145.72;;;-1.88;96.41
21504;BME280;10913;51.992;9.228;2024-01-16T23:10:06;99135.41;;;-1.86;96.03
21504;BME280;10913;51.992;9.228;2024-01-16T23:40:40;99108.78;;;-2.17;96.65
21504;BME280;10913;51.992;9.228;2024-01-16T23:43:28;99114.91;;;-2.13;96.40
21504;BME280;10913;51.992;9.228;2024-01-16T23:46:02;99101.03;;;-2.17;96.13
21504;BME280;10913;51.992;9.228;2024-01-16T23:48:41;99095.81;;;-2.18;95.98
21504;BME280;10913;51.992;9.228;2024-01-16T23:54:38;99074.94;;;-2.27;96.25
21504;BME280;10913;51.992;9.228;2024-01-16T23:57:32;99059.31;;;-2.30;96.36
